sensor_id;sensor_type;location;lat;lon;timestamp;P1;durP1;ratioP1;P2;durP2;ratioP2
30553;SDS011;17335;50.720;7.452;2023-03-14T00:01:25;5.97;;;1.33;;
30553;SDS011;17335;50.720;7.452;2023-03-14T00:03:52;4.63;;;1.38;;
30553;SDS011;17335;50.720;7.452;2023-03-14T00:06:19;4.90;;;1.23;;
30553;SDS011;17335;50.720;7.452;2023-03-14T00:08:46;4.10;;;1.95;;
30553;SDS011;17335;50.720;7.452;2023-03-14T00:11:15;4.63;;;1.40;;
30553;SDS011;17335;50.720;7.452;2023-03-14T00:13:43;5.07;;;1.20;;
30553;SDS011;17335;50.720;7.452;2023-03-14T00:16:13;5.10;;;1.10;;
30553;SDS011;17335;50.720;7.452;2023-03-14T00:18:40;3.92;;;1.38;;
30553;SDS011;17335;50.720;7.452;2023-03-14T00:21:08;4.60;;;1.00;;
30553;SDS011;17335;50.720;7.452;2023-03-14T00:23:36;2.70;;;1.27;;
30553;SDS011;17335;50.720;7.452;2023-03-14T00:26:11;4.53;;;1.10;;
30553;SDS011;17335;50.720;7.452;2023-03-14T00:31:07;4.53;;;1.10;;
30553;SDS011;17335;50.720;7.452;2023-03-14T00:33:35;3.03;;;0.88;;
30553;SDS011;17335;50.720;7.452;2023-03-14T00:36:05;6.60;;;1.27;;
30553;SDS011;17335;50.720;7.452;2023-03-14T00:38:35;2.85;;;1.02;;
30553;SDS011;17335;50.720;7.452;2023-03-14T00:41:06;6.43;;;1.17;;
30553;SDS011;17335;50.720;7.452;2023-03-14T00:43:34;4.93;;;1.35;;
30553;SDS011;17335;50.720;7.452;2023-03-14T00:46:01;4.78;;;1.20;;
30553;SDS011;17335;50.720;7.452;2023-03-14T00:48:28;3.22;;;1.23;;
30553;SDS011;17335;50.720;7.452;2023-03-14T00:50:55;5.80;;;1.73;;
30553;SDS011;17335;50.720;7.452;2023-03-14T00:53:22;3.75;;;1.10;;
30553;SDS011;17335;50.720;7.452;2023-03-14T00:55:49;4.15;;;1.25;;
30553;SDS011;17335;50.720;7.452;2023-03-14T00:58:16;4.18;;;1.20;;
30553;SDS011;17335;50.720;7.452;2023-03-14T01:00:44;5.55;;;1.35;;
30553;SDS011;17335;50.720;7.452;2023-03-14T01:03:13;9.55;;;1.75;;
30553;SDS011;17335;50.720;7.452;2023-03-14T01:05:40;4.07;;;1.83;;
30553;SDS011;17335;50.720;7.452;2023-03-14T01:08:08;4.80;;;1.70;;
30553;SDS011;17335;50.720;7.452;2023-03-14T01:10:37;5.78;;;1.38;;
30553;SDS011;17335;50.720;7.452;2023-03-14T01:13:06;3.30;;;1.40;;
30553;SDS011;17335;50.720;7.452;2023-03-14T01:15:34;6.65;;;1.58;;
30553;SDS011;17335;50.720;7.452;2023-03-14T01:18:02;8.25;;;1.98;;
30553;SDS011;17335;50.720;7.452;2023-03-14T01:20:29;6.07;;;1.25;;
30553;SDS011;17335;50.720;7.452;2023-03-14T01:22:56;3.55;;;1.23;;
30553;SDS011;17335;50.720;7.452;2023-03-14T01:25:23;5.70;;;1.63;;
30553;SDS011;17335;50.720;7.452;2023-03-14T01:27:49;7.65;;;1.65;;
30553;SDS011;17335;50.720;7.452;2023-03-14T01:30:16;3.90;;;1.30;;
30553;SDS011;17335;50.720;7.452;2023-03-14T01:32:42;6.80;;;1.50;;
30553;SDS011;17335;50.720;7.452;2023-03-14T01:35:09;4.85;;;1.17;;
30553;SDS011;17335;50.720;7.452;2023-03-14T01:37:36;10.18;;;1.60;;
30553;SDS011;17335;50.720;7.452;2023-03-14T01:40:02;8.55;;;1.75;;
30553;SDS011;17335;50.720;7.452;2023-03-14T01:42:31;5.47;;;1.42;;
30553;SDS011;17335;50.720;7.452;2023-03-14T01:44:58;5.72;;;1.42;;
30553;SDS011;17335;50.720;7.452;2023-03-14T01:47:27;6.57;;;1.60;;
30553;SDS011;17335;50.720;7.452;2023-03-14T01:50:01;7.75;;;1.67;;
30553;SDS011;17335;50.720;7.452;2023-03-14T01:52:32;5.97;;;1.40;;
30553;SDS011;17335;50.720;7.452;2023-03-14T01:55:21;5.25;;;1.30;;
30553;SDS011;17335;50.720;7.452;2023-03-14T01:57:51;5.40;;;1.50;;
30553;SDS011;17335;50.720;7.452;2023-03-14T02:00:29;7.78;;;1.80;;
30553;SDS011;17335;50.720;7.452;2023-03-14T02:02:57;4.30;;;1.92;;
30553;SDS011;17335;50.720;7.452;2023-03-14T02:05:34;3.67;;;1.48;;
30553;SDS011;17335;50.720;7.452;2023-03-14T02:08:05;6.47;;;1.40;;
30553;SDS011;17335;50.720;7.452;2023-03-14T02:10:38;3.72;;;1.23;;
30553;SDS011;17335;50.720;7.452;2023-03-14T02:13:08;6.53;;;1.48;;
30553;SDS011;17335;50.720;7.452;2023-03-14T02:15:36;5.53;;;1.40;;
30553;SDS011;17335;50.720;7.452;2023-03-14T02:18:03;5.45;;;1.80;;
30553;SDS011;17335;50.720;7.452;2023-03-14T02:26:25;4.35;;;1.35;;
30553;SDS011;17335;50.720;7.452;2023-03-14T02:28:56;5.45;;;1.38;;
30553;SDS011;17335;50.720;7.452;2023-03-14T02:31:23;6.60;;;1.70;;
30553;SDS011;17335;50.720;7.452;2023-03-14T02:33:50;7.68;;;1.80;;
30553;SDS011;17335;50.720;7.452;2023-03-14T02:36:17;6.82;;;1.92;;
30553;SDS011;17335;50.720;7.452;2023-03-14T02:38:51;4.95;;;1.08;;
30553;SDS011;17335;50.720;7.452;2023-03-14T02:41:23;6.07;;;1.40;;
30553;SDS011;17335;50.720;7.452;2023-03-14T02:43:50;6.32;;;1.38;;
30553;SDS011;17335;50.720;7.452;2023-03-14T02:46:17;6.03;;;1.35;;
30553;SDS011;17335;50.720;7.452;2023-03-14T02:51:27;5.18;;;1.27;;
30553;SDS011;17335;50.720;7.452;2023-03-14T02:53:55;4.82;;;1.40;;
30553;SDS011;17335;50.720;7.452;2023-03-14T02:56:21;6.47;;;1.00;;
30553;SDS011;17335;50.720;7.452;2023-03-14T02:58:48;12.93;;;1.40;;
30553;SDS011;17335;50.720;7.452;2023-03-14T03:01:15;9.80;;;1.88;;
30553;SDS011;17335;50.720;7.452;2023-03-14T03:03:44;4.18;;;1.20;;
30553;SDS011;17335;50.720;7.452;2023-03-14T03:06:10;5.85;;;1.30;;
30553;SDS011;17335;50.720;7.452;2023-03-14T03:08:37;7.45;;;1.80;;
30553;SDS011;17335;50.720;7.452;2023-03-14T03:11:04;9.32;;;1.58;;
30553;SDS011;17335;50.720;7.452;2023-03-14T03:13:31;4.32;;;1.27;;
30553;SDS011;17335;50.720;7.452;2023-03-14T03:15:57;10.55;;;1.65;;
30553;SDS011;17335;50.720;7.452;2023-03-14T03:18:24;7.55;;;1.50;;
30553;SDS011;17335;50.720;7.452;2023-03-14T03:20:51;9.57;;;1.73;;
30553;SDS011;17335;50.720;7.452;2023-03-14T03:23:17;5.28;;;1.65;;
30553;SDS011;17335;50.720;7.452;2023-03-14T03:25:48;7.65;;;1.30;;
30553;SDS011;17335;50.720;7.452;2023-03-14T03:28:16;9.90;;;1.45;;
30553;SDS011;17335;50.720;7.452;2023-03-14T03:30:43;8.00;;;1.42;;
30553;SDS011;17335;50.720;7.452;2023-03-14T03:33:10;4.75;;;1.50;;
30553;SDS011;17335;50.720;7.452;2023-03-14T03:35:44;4.57;;;1.52;;
30553;SDS011;17335;50.720;7.452;2023-03-14T03:38:12;9.68;;;1.98;;
30553;SDS011;17335;50.720;7.452;2023-03-14T03:40:39;11.27;;;1.60;;
30553;SDS011;17335;50.720;7.452;2023-03-14T03:43:06;8.15;;;1.73;;
30553;SDS011;17335;50.720;7.452;2023-03-14T03:45:32;10.10;;;1.50;;
30553;SDS011;17335;50.720;7.452;2023-03-14T03:47:59;6.45;;;1.73;;
30553;SDS011;17335;50.720;7.452;2023-03-14T03:50:26;11.13;;;1.70;;
30553;SDS011;17335;50.720;7.452;2023-03-14T03:52:53;6.65;;;1.33;;
30553;SDS011;17335;50.720;7.452;2023-03-14T03:55:19;3.38;;;1.13;;
30553;SDS011;17335;50.720;7.452;2023-03-14T03:57:46;6.18;;;1.80;;
30553;SDS011;17335;50.720;7.452;2023-03-14T04:00:13;9.40;;;2.08;;
30553;SDS011;17335;50.720;7.452;2023-03-14T04:02:40;5.80;;;1.40;;
30553;SDS011;17335;50.720;7.452;2023-03-14T04:05:06;4.15;;;1.45;;
30553;SDS011;17335;50.720;7.452;2023-03-14T04:07:33;9.45;;;1.48;;
30553;SDS011;17335;50.720;7.452;2023-03-14T04:10:00;3.70;;;1.02;;
30553;SDS011;17335;50.720;7.452;2023-03-14T04:12:27;3.55;;;1.10;;
30553;SDS011;17335;50.720;7.452;2023-03-14T04:14:53;4.75;;;1.27;;
30553;SDS011;17335;50.720;7.452;2023-03-14T04:17:20;4.20;;;1.67;;
30553;SDS011;17335;50.720;7.452;2023-03-14T04:19:47;5.45;;;1.10;;
30553;SDS011;17335;50.720;7.452;2023-03-14T04:22:17;4.68;;;0.90;;
30553;SDS011;17335;50.720;7.452;2023-03-14T04:24:44;7.43;;;1.27;;
30553;SDS011;17335;50.720;7.452;2023-03-14T04:27:10;4.53;;;1.25;;
30553;SDS011;17335;50.720;7.452;2023-03-14T04:29:37;5.10;;;1.58;;
30553;SDS011;17335;50.720;7.452;2023-03-14T04:32:03;2.20;;;0.80;;
30553;SDS011;17335;50.720;7.452;2023-03-14T04:34:30;4.05;;;1.08;;
30553;SDS011;17335;50.720;7.452;2023-03-14T04:36:57;2.35;;;0.85;;
30553;SDS011;17335;50.720;7.452;2023-03-14T04:39:24;2.88;;;1.33;;
30553;SDS011;17335;50.720;7.452;2023-03-14T04:41:50;2.58;;;0.73;;
30553;SDS011;17335;50.720;7.452;2023-03-14T04:44:17;4.53;;;1.00;;
30553;SDS011;17335;50.720;7.452;2023-03-14T04:46:43;1.10;;;0.70;;
30553;SDS011;17335;50.720;7.452;2023-03-14T04:49:10;2.53;;;0.70;;
30553;SDS011;17335;50.720;7.452;2023-03-14T04:51:37;4.30;;;0.95;;
30553;SDS011;17335;50.720;7.452;2023-03-14T04:54:04;1.27;;;0.70;;
30553;SDS011;17335;50.720;7.452;2023-03-14T04:56:30;2.63;;;0.77;;
30553;SDS011;17335;50.720;7.452;2023-03-14T04:58:57;2.70;;;0.80;;
30553;SDS011;17335;50.720;7.452;2023-03-14T05:01:23;2.58;;;0.63;;
30553;SDS011;17335;50.720;7.452;2023-03-14T05:03:50;4.65;;;1.08;;
30553;SDS011;17335;50.720;7.452;2023-03-14T05:06:17;1.48;;;0.43;;
30553;SDS011;17335;50.720;7.452;2023-03-14T05:08:44;1.73;;;0.50;;
30553;SDS011;17335;50.720;7.452;2023-03-14T05:11:11;2.25;;;0.77;;
30553;SDS011;17335;50.720;7.452;2023-03-14T05:13:39;1.65;;;0.85;;
30553;SDS011;17335;50.720;7.452;2023-03-14T05:16:07;3.13;;;0.60;;
30553;SDS011;17335;50.720;7.452;2023-03-14T05:18:35;0.82;;;0.50;;
30553;SDS011;17335;50.720;7.452;2023-03-14T05:21:02;0.70;;;0.50;;
30553;SDS011;17335;50.720;7.452;2023-03-14T05:23:30;0.70;;;0.63;;
30553;SDS011;17335;50.720;7.452;2023-03-14T05:25:57;1.80;;;0.60;;
30553;SDS011;17335;50.720;7.452;2023-03-14T05:28:23;1.73;;;0.60;;
30553;SDS011;17335;50.720;7.452;2023-03-14T05:30:51;1.83;;;0.60;;
30553;SDS011;17335;50.720;7.452;2023-03-14T05:33:18;0.50;;;0.43;;
30553;SDS011;17335;50.720;7.452;2023-03-14T05:35:44;0.65;;;0.50;;
30553;SDS011;17335;50.720;7.452;2023-03-14T05:38:11;0.80;;;0.43;;
30553;SDS011;17335;50.720;7.452;2023-03-14T05:40:37;1.20;;;0.40;;
30553;SDS011;17335;50.720;7.452;2023-03-14T05:43:04;0.75;;;0.50;;
30553;SDS011;17335;50.720;7.452;2023-03-14T05:45:31;0.40;;;0.40;;
30553;SDS011;17335;50.720;7.452;2023-03-14T05:48:00;1.10;;;0.50;;
30553;SDS011;17335;50.720;7.452;2023-03-14T05:50:27;0.45;;;0.40;;
30553;SDS011;17335;50.720;7.452;2023-03-14T05:52:53;1.75;;;0.60;;
30553;SDS011;17335;50.720;7.452;2023-03-14T05:55:20;0.70;;;0.55;;
30553;SDS011;17335;50.720;7.452;2023-03-14T05:57:47;0.68;;;0.50;;
30553;SDS011;17335;50.720;7.452;2023-03-14T06:00:13;1.10;;;1.00;;
30553;SDS011;17335;50.720;7.452;2023-03-14T06:02:40;0.40;;;0.40;;
30553;SDS011;17335;50.720;7.452;2023-03-14T06:05:07;0.52;;;0.50;;
30553;SDS011;17335;50.720;7.452;2023-03-14T06:07:34;3.70;;;0.70;;
30553;SDS011;17335;50.720;7.452;2023-03-14T06:10:00;2.03;;;0.70;;
30553;SDS011;17335;50.720;7.452;2023-03-14T06:12:27;0.40;;;0.40;;
30553;SDS011;17335;50.720;7.452;2023-03-14T06:14:56;0.40;;;0.40;;
30553;SDS011;17335;50.720;7.452;2023-03-14T06:17:23;0.40;;;0.40;;
30553;SDS011;17335;50.720;7.452;2023-03-14T06:19:49;0.52;;;0.45;;
30553;SDS011;17335;50.720;7.452;2023-03-14T06:22:16;1.35;;;0.60;;
30553;SDS011;17335;50.720;7.452;2023-03-14T06:24:44;0.52;;;0.40;;
30553;SDS011;17335;50.720;7.452;2023-03-14T06:27:10;0.50;;;0.50;;
30553;SDS011;17335;50.720;7.452;2023-03-14T06:29:37;0.40;;;0.40;;
30553;SDS011;17335;50.720;7.452;2023-03-14T06:32:03;0.63;;;0.50;;
30553;SDS011;17335;50.720;7.452;2023-03-14T06:34:31;0.90;;;0.47;;
30553;SDS011;17335;50.720;7.452;2023-03-14T06:36:57;0.47;;;0.47;;
30553;SDS011;17335;50.720;7.452;2023-03-14T06:39:24;2.15;;;0.60;;
30553;SDS011;17335;50.720;7.452;2023-03-14T06:41:51;0.77;;;0.40;;
30553;SDS011;17335;50.720;7.452;2023-03-14T06:44:17;0.45;;;0.40;;
30553;SDS011;17335;50.720;7.452;2023-03-14T06:46:44;0.73;;;0.40;;
30553;SDS011;17335;50.720;7.452;2023-03-14T06:49:10;0.40;;;0.40;;
30553;SDS011;17335;50.720;7.452;2023-03-14T06:51:37;0.63;;;0.57;;
30553;SDS011;17335;50.720;7.452;2023-03-14T06:54:04;0.40;;;0.40;;
30553;SDS011;17335;50.720;7.452;2023-03-14T06:56:31;0.40;;;0.40;;
30553;SDS011;17335;50.720;7.452;2023-03-14T06:58:57;0.40;;;0.40;;
30553;SDS011;17335;50.720;7.452;2023-03-14T07:01:25;0.43;;;0.32;;
30553;SDS011;17335;50.720;7.452;2023-03-14T07:03:54;0.70;;;0.40;;
30553;SDS011;17335;50.720;7.452;2023-03-14T07:06:21;0.93;;;0.50;;
30553;SDS011;17335;50.720;7.452;2023-03-14T07:08:48;0.75;;;0.57;;
30553;SDS011;17335;50.720;7.452;2023-03-14T07:11:15;1.85;;;0.50;;
30553;SDS011;17335;50.720;7.452;2023-03-14T07:13:42;1.33;;;0.57;;
30553;SDS011;17335;50.720;7.452;2023-03-14T07:16:09;1.30;;;0.55;;
30553;SDS011;17335;50.720;7.452;2023-03-14T07:18:35;0.45;;;0.40;;
30553;SDS011;17335;50.720;7.452;2023-03-14T07:21:04;0.73;;;0.45;;
30553;SDS011;17335;50.720;7.452;2023-03-14T07:23:31;0.85;;;0.50;;
30553;SDS011;17335;50.720;7.452;2023-03-14T07:25:58;1.05;;;0.40;;
30553;SDS011;17335;50.720;7.452;2023-03-14T07:28:24;0.82;;;0.50;;
30553;SDS011;17335;50.720;7.452;2023-03-14T07:30:53;0.40;;;0.40;;
30553;SDS011;17335;50.720;7.452;2023-03-14T07:33:20;0.77;;;0.50;;
30553;SDS011;17335;50.720;7.452;2023-03-14T07:35:47;0.63;;;0.50;;
30553;SDS011;17335;50.720;7.452;2023-03-14T07:38:15;1.40;;;0.50;;
30553;SDS011;17335;50.720;7.452;2023-03-14T07:40:43;0.40;;;0.40;;
30553;SDS011;17335;50.720;7.452;2023-03-14T07:43:09;2.00;;;0.40;;
30553;SDS011;17335;50.720;7.452;2023-03-14T07:45:36;0.40;;;0.40;;
30553;SDS011;17335;50.720;7.452;2023-03-14T07:48:08;0.40;;;0.40;;
30553;SDS011;17335;50.720;7.452;2023-03-14T07:50:34;2.15;;;0.50;;
30553;SDS011;17335;50.720;7.452;2023-03-14T07:53:01;1.50;;;0.50;;
30553;SDS011;17335;50.720;7.452;2023-03-14T07:55:27;1.27;;;0.40;;
30553;SDS011;17335;50.720;7.452;2023-03-14T07:57:54;0.57;;;0.50;;
30553;SDS011;17335;50.720;7.452;2023-03-14T08:00:21;0.50;;;0.50;;
30553;SDS011;17335;50.720;7.452;2023-03-14T08:02:47;0.40;;;0.40;;
30553;SDS011;17335;50.720;7.452;2023-03-14T08:05:14;0.40;;;0.40;;
30553;SDS011;17335;50.720;7.452;2023-03-14T08:07:41;0.40;;;0.40;;
30553;SDS011;17335;50.720;7.452;2023-03-14T08:10:08;0.40;;;0.40;;
30553;SDS011;17335;50.720;7.452;2023-03-14T08:12:35;0.40;;;0.40;;
30553;SDS011;17335;50.720;7.452;2023-03-14T08:15:02;0.30;;;0.30;;
30553;SDS011;17335;50.720;7.452;2023-03-14T08:17:29;0.50;;;0.50;;
30553;SDS011;17335;50.720;7.452;2023-03-14T08:19:55;0.60;;;0.60;;
30553;SDS011;17335;50.720;7.452;2023-03-14T08:22:22;0.40;;;0.40;;
30553;SDS011;17335;50.720;7.452;2023-03-14T08:24:48;0.40;;;0.40;;
30553;SDS011;17335;50.720;7.452;2023-03-14T08:27:16;0.30;;;0.30;;
30553;SDS011;17335;50.720;7.452;2023-03-14T08:29:43;0.40;;;0.40;;
30553;SDS011;17335;50.720;7.452;2023-03-14T08:32:09;0.40;;;0.40;;
30553;SDS011;17335;50.720;7.452;2023-03-14T08:34:36;1.15;;;0.50;;
30553;SDS011;17335;50.720;7.452;2023-03-14T08:37:04;0.45;;;0.40;;
30553;SDS011;17335;50.720;7.452;2023-03-14T08:39:48;1.38;;;0.40;;
30553;SDS011;17335;50.720;7.452;2023-03-14T08:42:15;0.47;;;0.47;;
30553;SDS011;17335;50.720;7.452;2023-03-14T08:44:41;0.65;;;0.40;;
30553;SDS011;17335;50.720;7.452;2023-03-14T08:47:08;0.40;;;0.40;;
30553;SDS011;17335;50.720;7.452;2023-03-14T08:49:35;0.32;;;0.32;;
30553;SDS011;17335;50.720;7.452;2023-03-14T08:52:02;0.65;;;0.43;;
30553;SDS011;17335;50.720;7.452;2023-03-14T08:54:30;0.90;;;0.47;;
30553;SDS011;17335;50.720;7.452;2023-03-14T08:56:57;0.40;;;0.40;;
30553;SDS011;17335;50.720;7.452;2023-03-14T08:59:24;0.40;;;0.40;;
30553;SDS011;17335;50.720;7.452;2023-03-14T09:01:50;0.40;;;0.40;;
30553;SDS011;17335;50.720;7.452;2023-03-14T09:04:17;0.40;;;0.40;;
30553;SDS011;17335;50.720;7.452;2023-03-14T09:06:44;0.82;;;0.50;;
30553;SDS011;17335;50.720;7.452;2023-03-14T09:09:10;2.22;;;0.50;;
30553;SDS011;17335;50.720;7.452;2023-03-14T09:11:37;0.80;;;0.47;;
30553;SDS011;17335;50.720;7.452;2023-03-14T09:14:03;0.40;;;0.40;;
30553;SDS011;17335;50.720;7.452;2023-03-14T09:16:30;0.45;;;0.45;;
30553;SDS011;17335;50.720;7.452;2023-03-14T09:18:56;1.60;;;0.50;;
30553;SDS011;17335;50.720;7.452;2023-03-14T09:21:26;0.47;;;0.47;;
30553;SDS011;17335;50.720;7.452;2023-03-14T09:23:53;0.40;;;0.40;;
30553;SDS011;17335;50.720;7.452;2023-03-14T09:26:20;0.45;;;0.45;;
30553;SDS011;17335;50.720;7.452;2023-03-14T09:28:46;0.40;;;0.40;;
30553;SDS011;17335;50.720;7.452;2023-03-14T09:31:13;2.20;;;0.50;;
30553;SDS011;17335;50.720;7.452;2023-03-14T09:33:40;0.40;;;0.40;;
30553;SDS011;17335;50.720;7.452;2023-03-14T09:36:06;0.45;;;0.45;;
30553;SDS011;17335;50.720;7.452;2023-03-14T09:38:34;0.47;;;0.47;;
30553;SDS011;17335;50.720;7.452;2023-03-14T09:41:01;0.43;;;0.43;;
30553;SDS011;17335;50.720;7.452;2023-03-14T09:43:37;0.70;;;0.50;;
30553;SDS011;17335;50.720;7.452;2023-03-14T09:46:05;0.40;;;0.40;;
30553;SDS011;17335;50.720;7.452;2023-03-14T09:48:35;0.68;;;0.52;;
30553;SDS011;17335;50.720;7.452;2023-03-14T09:51:04;0.40;;;0.35;;
30553;SDS011;17335;50.720;7.452;2023-03-14T09:53:42;0.57;;;0.40;;
30553;SDS011;17335;50.720;7.452;2023-03-14T09:56:18;0.65;;;0.45;;
30553;SDS011;17335;50.720;7.452;2023-03-14T09:58:52;0.50;;;0.40;;
30553;SDS011;17335;50.720;7.452;2023-03-14T10:01:26;0.40;;;0.40;;
30553;SDS011;17335;50.720;7.452;2023-03-14T10:03:59;0.40;;;0.40;;
30553;SDS011;17335;50.720;7.452;2023-03-14T10:06:30;0.40;;;0.40;;
30553;SDS011;17335;50.720;7.452;2023-03-14T10:08:57;0.30;;;0.30;;
30553;SDS011;17335;50.720;7.452;2023-03-14T10:11:24;0.40;;;0.40;;
30553;SDS011;17335;50.720;7.452;2023-03-14T10:16:35;1.08;;;0.43;;
30553;SDS011;17335;50.720;7.452;2023-03-14T10:19:06;0.40;;;0.40;;
30553;SDS011;17335;50.720;7.452;2023-03-14T10:21:40;0.40;;;0.40;;
30553;SDS011;17335;50.720;7.452;2023-03-14T10:27:20;1.48;;;0.65;;
30553;SDS011;17335;50.720;7.452;2023-03-14T10:29:55;0.73;;;0.63;;
30553;SDS011;17335;50.720;7.452;2023-03-14T10:32:33;2.05;;;0.70;;
30553;SDS011;17335;50.720;7.452;2023-03-14T10:35:20;0.98;;;0.70;;
30553;SDS011;17335;50.720;7.452;2023-03-14T10:38:01;1.30;;;0.70;;
30553;SDS011;17335;50.720;7.452;2023-03-14T10:40:39;1.25;;;0.65;;
30553;SDS011;17335;50.720;7.452;2023-03-14T10:43:13;1.23;;;0.70;;
30553;SDS011;17335;50.720;7.452;2023-03-14T10:45:43;1.55;;;0.70;;
30553;SDS011;17335;50.720;7.452;2023-03-14T10:48:19;1.95;;;1.10;;
30553;SDS011;17335;50.720;7.452;2023-03-14T10:53:16;1.80;;;0.77;;
30553;SDS011;17335;50.720;7.452;2023-03-14T10:55:45;0.70;;;0.70;;
30553;SDS011;17335;50.720;7.452;2023-03-14T10:58:19;2.03;;;1.13;;
30553;SDS011;17335;50.720;7.452;2023-03-14T11:07:06;3.83;;;1.40;;
30553;SDS011;17335;50.720;7.452;2023-03-14T11:21:13;2.17;;;1.30;;
30553;SDS011;17335;50.720;7.452;2023-03-14T11:26:37;2.50;;;1.40;;
30553;SDS011;17335;50.720;7.452;2023-03-14T11:32:04;2.92;;;1.40;;
30553;SDS011;17335;50.720;7.452;2023-03-14T11:34:55;2.67;;;1.23;;
30553;SDS011;17335;50.720;7.452;2023-03-14T11:37:28;1.52;;;0.93;;
30553;SDS011;17335;50.720;7.452;2023-03-14T11:40:10;4.18;;;1.10;;
30553;SDS011;17335;50.720;7.452;2023-03-14T11:42:40;1.67;;;1.10;;
30553;SDS011;17335;50.720;7.452;2023-03-14T11:45:43;3.20;;;1.13;;
30553;SDS011;17335;50.720;7.452;2023-03-14T11:50:40;1.25;;;1.00;;
30553;SDS011;17335;50.720;7.452;2023-03-14T11:53:10;1.67;;;1.10;;
30553;SDS011;17335;50.720;7.452;2023-03-14T11:55:42;1.75;;;1.10;;
30553;SDS011;17335;50.720;7.452;2023-03-14T12:00:44;2.13;;;0.93;;
30553;SDS011;17335;50.720;7.452;2023-03-14T12:11:18;2.50;;;1.30;;
30553;SDS011;17335;50.720;7.452;2023-03-14T12:13:50;1.67;;;1.15;;
30553;SDS011;17335;50.720;7.452;2023-03-14T12:18:53;5.00;;;1.52;;
30553;SDS011;17335;50.720;7.452;2023-03-14T12:21:20;6.35;;;1.75;;
30553;SDS011;17335;50.720;7.452;2023-03-14T12:23:49;2.92;;;1.80;;
30553;SDS011;17335;50.720;7.452;2023-03-14T12:26:26;4.20;;;1.60;;
30553;SDS011;17335;50.720;7.452;2023-03-14T12:29:15;1.38;;;0.90;;
30553;SDS011;17335;50.720;7.452;2023-03-14T12:31:46;1.00;;;0.80;;
30553;SDS011;17335;50.720;7.452;2023-03-14T12:34:24;1.25;;;0.75;;
30553;SDS011;17335;50.720;7.452;2023-03-14T12:42:22;1.02;;;0.68;;
30553;SDS011;17335;50.720;7.452;2023-03-14T12:47:46;2.17;;;0.65;;
30553;SDS011;17335;50.720;7.452;2023-03-14T12:50:21;1.30;;;0.95;;
30553;SDS011;17335;50.720;7.452;2023-03-14T12:55:24;1.10;;;0.82;;
30553;SDS011;17335;50.720;7.452;2023-03-14T13:01:15;2.35;;;0.95;;
30553;SDS011;17335;50.720;7.452;2023-03-14T13:03:51;3.47;;;1.13;;
30553;SDS011;17335;50.720;7.452;2023-03-14T13:11:56;5.03;;;2.15;;
30553;SDS011;17335;50.720;7.452;2023-03-14T13:14:28;5.53;;;2.60;;
30553;SDS011;17335;50.720;7.452;2023-03-14T13:17:00;5.05;;;2.40;;
30553;SDS011;17335;50.720;7.452;2023-03-14T13:19:52;9.35;;;2.50;;
30553;SDS011;17335;50.720;7.452;2023-03-14T13:22:25;5.43;;;2.90;;
30553;SDS011;17335;50.720;7.452;2023-03-14T13:24:59;6.50;;;3.15;;
30553;SDS011;17335;50.720;7.452;2023-03-14T13:27:29;7.00;;;3.67;;
30553;SDS011;17335;50.720;7.452;2023-03-14T13:29:57;9.77;;;3.63;;
30553;SDS011;17335;50.720;7.452;2023-03-14T13:32:27;10.15;;;3.83;;
30553;SDS011;17335;50.720;7.452;2023-03-14T13:34:57;9.25;;;4.57;;
30553;SDS011;17335;50.720;7.452;2023-03-14T13:37:25;9.50;;;4.15;;
30553;SDS011;17335;50.720;7.452;2023-03-14T13:39:53;9.65;;;4.72;;
30553;SDS011;17335;50.720;7.452;2023-03-14T13:42:25;9.27;;;4.20;;
30553;SDS011;17335;50.720;7.452;2023-03-14T13:44:53;7.78;;;4.32;;
30553;SDS011;17335;50.720;7.452;2023-03-14T13:47:23;10.77;;;4.93;;
30553;SDS011;17335;50.720;7.452;2023-03-14T13:49:52;8.60;;;5.07;;
30553;SDS011;17335;50.720;7.452;2023-03-14T13:52:35;12.60;;;5.57;;
30553;SDS011;17335;50.720;7.452;2023-03-14T13:55:04;11.90;;;5.60;;
30553;SDS011;17335;50.720;7.452;2023-03-14T13:57:43;10.65;;;5.70;;
30553;SDS011;17335;50.720;7.452;2023-03-14T14:00:20;13.55;;;5.88;;
30553;SDS011;17335;50.720;7.452;2023-03-14T14:02:54;10.43;;;5.57;;
30553;SDS011;17335;50.720;7.452;2023-03-14T14:05:23;12.93;;;5.93;;
30553;SDS011;17335;50.720;7.452;2023-03-14T14:07:53;8.73;;;4.95;;
30553;SDS011;17335;50.720;7.452;2023-03-14T14:10:21;9.00;;;4.53;;
30553;SDS011;17335;50.720;7.452;2023-03-14T14:15:29;9.20;;;4.35;;
30553;SDS011;17335;50.720;7.452;2023-03-14T14:18:00;9.05;;;4.35;;
30553;SDS011;17335;50.720;7.452;2023-03-14T14:20:31;13.70;;;6.18;;
30553;SDS011;17335;50.720;7.452;2023-03-14T14:23:05;13.15;;;5.13;;
30553;SDS011;17335;50.720;7.452;2023-03-14T14:25:37;12.38;;;4.53;;
30553;SDS011;17335;50.720;7.452;2023-03-14T14:28:17;10.00;;;4.22;;
30553;SDS011;17335;50.720;7.452;2023-03-14T14:31:00;7.55;;;3.90;;
30553;SDS011;17335;50.720;7.452;2023-03-14T14:33:37;8.77;;;4.35;;
30553;SDS011;17335;50.720;7.452;2023-03-14T14:38:58;7.53;;;3.72;;
30553;SDS011;17335;50.720;7.452;2023-03-14T14:41:39;7.78;;;3.97;;
30553;SDS011;17335;50.720;7.452;2023-03-14T14:44:10;9.18;;;3.78;;
30553;SDS011;17335;50.720;7.452;2023-03-14T14:46:38;9.18;;;3.35;;
30553;SDS011;17335;50.720;7.452;2023-03-14T14:49:09;6.10;;;2.53;;
30553;SDS011;17335;50.720;7.452;2023-03-14T14:51:42;5.45;;;2.47;;
30553;SDS011;17335;50.720;7.452;2023-03-14T14:54:11;8.70;;;2.80;;
30553;SDS011;17335;50.720;7.452;2023-03-14T14:56:40;9.20;;;2.42;;
30553;SDS011;17335;50.720;7.452;2023-03-14T14:59:21;5.00;;;2.40;;
30553;SDS011;17335;50.720;7.452;2023-03-14T15:01:55;9.48;;;3.28;;
30553;SDS011;17335;50.720;7.452;2023-03-14T15:04:25;10.27;;;3.20;;
30553;SDS011;17335;50.720;7.452;2023-03-14T15:06:53;9.85;;;3.25;;
30553;SDS011;17335;50.720;7.452;2023-03-14T15:09:20;5.53;;;2.95;;
30553;SDS011;17335;50.720;7.452;2023-03-14T15:11:47;12.40;;;3.97;;
30553;SDS011;17335;50.720;7.452;2023-03-14T15:14:14;7.13;;;3.00;;
30553;SDS011;17335;50.720;7.452;2023-03-14T15:16:41;5.13;;;3.08;;
30553;SDS011;17335;50.720;7.452;2023-03-14T15:19:19;8.98;;;2.88;;
30553;SDS011;17335;50.720;7.452;2023-03-14T15:21:54;7.03;;;2.83;;
30553;SDS011;17335;50.720;7.452;2023-03-14T15:24:21;8.00;;;2.95;;
30553;SDS011;17335;50.720;7.452;2023-03-14T15:26:48;6.22;;;3.10;;
30553;SDS011;17335;50.720;7.452;2023-03-14T15:29:14;8.13;;;3.17;;
30553;SDS011;17335;50.720;7.452;2023-03-14T15:31:41;9.07;;;3.17;;
30553;SDS011;17335;50.720;7.452;2023-03-14T15:34:10;8.95;;;4.03;;
30553;SDS011;17335;50.720;7.452;2023-03-14T15:36:36;8.88;;;3.78;;
30553;SDS011;17335;50.720;7.452;2023-03-14T15:39:04;9.68;;;4.50;;
30553;SDS011;17335;50.720;7.452;2023-03-14T15:41:32;10.85;;;3.90;;
30553;SDS011;17335;50.720;7.452;2023-03-14T15:43:59;12.05;;;4.00;;
30553;SDS011;17335;50.720;7.452;2023-03-14T15:46:25;12.82;;;3.42;;
30553;SDS011;17335;50.720;7.452;2023-03-14T15:48:55;7.38;;;3.90;;
30553;SDS011;17335;50.720;7.452;2023-03-14T15:51:22;9.18;;;2.90;;
30553;SDS011;17335;50.720;7.452;2023-03-14T15:53:48;11.05;;;3.28;;
30553;SDS011;17335;50.720;7.452;2023-03-14T15:56:16;15.18;;;3.60;;
30553;SDS011;17335;50.720;7.452;2023-03-14T15:58:44;7.72;;;3.55;;
30553;SDS011;17335;50.720;7.452;2023-03-14T16:01:14;16.50;;;4.28;;
30553;SDS011;17335;50.720;7.452;2023-03-14T16:03:42;9.60;;;3.47;;
30553;SDS011;17335;50.720;7.452;2023-03-14T16:06:11;8.93;;;2.85;;
30553;SDS011;17335;50.720;7.452;2023-03-14T16:08:38;11.85;;;2.75;;
30553;SDS011;17335;50.720;7.452;2023-03-14T16:11:05;11.02;;;2.88;;
30553;SDS011;17335;50.720;7.452;2023-03-14T16:13:31;14.20;;;3.78;;
30553;SDS011;17335;50.720;7.452;2023-03-14T16:15:59;13.65;;;3.22;;
30553;SDS011;17335;50.720;7.452;2023-03-14T16:18:29;17.15;;;3.08;;
30553;SDS011;17335;50.720;7.452;2023-03-14T16:21:00;15.20;;;2.97;;